Buoy 44845

sailwx.info

Track history (hours):
 
Tides and Currents Weather Stations Pressure Air Temp Water Temp Dewpoint Dewpoint Depression Visibility Wind Speed Wind Dir Waves Ship Positions

Drifting buoy 44845

Last reported at 2016-Feb-13 09:01 UTC. Time now 2016-Feb-13 11:00 UTC.
Position N 74°48' E 003°25'.

Date/timePositionNaut miles runAvg speedWind from/ knotsBaromVisibWave heightAir tempDewpointWater temp
2016-Feb-13 09:01N 74°48' E 003°25'0 0.3
2016-Feb-13 08:01N 74°48' E 003°25'0 0.2
2016-Feb-13 07:01N 74°47' E 003°24'0 0.3
2016-Feb-13 06:01N 74°47' E 003°23'0 0.4
2016-Feb-13 05:01N 74°47' E 003°23'1 0.7
2016-Feb-13 04:01N 74°46' E 003°25'1 0.8
2016-Feb-13 03:01N 74°46' E 003°27'1 0.7
2016-Feb-13 02:01N 74°45' E 003°30'1 0.8
2016-Feb-13 01:01N 74°45' E 003°32'1 0.7
2016-Feb-12 23:01N 74°44' E 003°37'1 0.5
2016-Feb-12 21:01N 74°43' E 003°39'0 0.4
2016-Feb-12 20:01N 74°43' E 003°40'0 0.4
2016-Feb-12 19:01N 74°43' E 003°39'0 0.5
2016-Feb-12 18:01N 74°42' E 003°38'0 0.4
2016-Feb-12 17:01N 74°42' E 003°37'0 0.3
2016-Feb-12 16:01N 74°42' E 003°36'0 0.4
2016-Feb-12 15:01N 74°42' E 003°35'0 0.4
2016-Feb-12 14:01N 74°42' E 003°33'1 0.5
2016-Feb-12 13:01N 74°42' E 003°31'1 0.5
2016-Feb-12 12:01N 74°42' E 003°29'1 0.5
2016-Feb-12 11:01N 74°42' E 003°27'1 0.6
2016-Feb-12 10:01N 74°42' E 003°26'1 0.5
2016-Feb-12 09:01N 74°43' E 003°24'1 0.5
2016-Feb-12 08:01N 74°43' E 003°23'1 0.5
2016-Feb-12 07:01N 74°44' E 003°23'1 0.6
2016-Feb-12 06:01N 74°44' E 003°22'1 0.6
2016-Feb-12 04:01N 74°46' E 003°21'1 0.8
2016-Feb-12 03:01N 74°46' E 003°20'1 0.8
2016-Feb-12 02:01N 74°47' E 003°19'1 0.8
2016-Feb-12 01:01N 74°48' E 003°17'1 0.8
2016-Feb-12 00:01N 74°48' E 003°16'1 0.9
2016-Feb-11 23:01N 74°49' E 003°15'1 0.8
2016-Feb-11 22:01N 74°50' E 003°13'1 0.8
2016-Feb-11 21:01N 74°50' E 003°11'1 0.7
2016-Feb-11 20:01N 74°51' E 003°09'1 0.8
2016-Feb-11 19:01N 74°51' E 003°07'1 0.7
2016-Feb-11 18:01N 74°52' E 003°05'1 0.6
2016-Feb-11 16:01N 74°52' E 003°01'1 0.6
2016-Feb-11 14:01N 74°53' E 002°56'1 0.6
2016-Feb-11 13:01N 74°53' E 002°54'1 0.6
2016-Feb-11 12:01N 74°53' E 002°52'1 0.6
2016-Feb-11 11:01N 74°53' E 002°50'1 0.5
2016-Feb-11 10:01N 74°54' E 002°48'1 0.7
2016-Feb-11 09:01N 74°54' E 002°46'1 0.7
2016-Feb-11 08:01N 74°55' E 002°44'1 0.7
2016-Feb-11 07:01N 74°55' E 002°42'1 0.9
2016-Feb-11 06:01N 74°56' E 002°39'1 1.0
2016-Feb-11 05:01N 74°56' E 002°37'1 1.0
2016-Feb-11 04:01N 74°57' E 002°34'1 0.9
2016-Feb-11 03:01N 74°57' E 002°31'2 0.8
2016-Feb-11 01:01N 74°59' E 002°27'1 0.7
2016-Feb-11 00:02N 74°59' E 002°25'1 0.7
2016-Feb-10 23:01N 74°60' E 002°23'1 0.6
2016-Feb-10 22:01N 75°00' E 002°22'1 1.2
2016-Feb-10 21:01N 75°01' E 002°19'0 0.0
2016-Feb-10 20:01N 75°01' E 002°19'1 0.7
2016-Feb-10 19:01N 75°02' E 002°17'1 0.7
2016-Feb-10 18:01N 75°02' E 002°16'1 0.7
2016-Feb-10 17:01N 75°03' E 002°14'1 0.6
2016-Feb-10 16:01N 75°03' E 002°13'1 0.6
2016-Feb-10 15:01N 75°04' E 002°11'1 0.6
2016-Feb-10 14:01N 75°04' E 002°10'1 0.8
2016-Feb-10 13:01N 75°05' E 002°09'6 0.8
2016-Feb-10 06:01N 75°10' E 002°01'1 0.9
2016-Feb-10 05:01N 75°11' E 002°00'1 0.8
2016-Feb-10 04:01N 75°12' E 001°59'1 0.8
2016-Feb-10 03:01N 75°13' E 001°58'1 0.8
2016-Feb-10 02:01N 75°13' E 001°57'2 0.8
2016-Feb-09 23:01N 75°16' E 001°54'1 0.8
2016-Feb-09 22:01N 75°16' E 001°53'1 0.8
2016-Feb-09 21:01N 75°17' E 001°52'1 0.7
2016-Feb-09 20:01N 75°18' E 001°51'1 0.7
2016-Feb-09 19:01N 75°18' E 001°51'1 0.8
2016-Feb-09 18:01N 75°19' E 001°50'1 1.0
2016-Feb-09 17:01N 75°20' E 001°50'2 0.9
2016-Feb-09 15:01N 75°22' E 001°49'1 0.8
2016-Feb-09 14:01N 75°23' E 001°49'1 0.8
2016-Feb-09 13:01N 75°24' E 001°49'1 0.9
2016-Feb-09 12:01N 75°25' E 001°49'1 1.0
2016-Feb-09 11:02N 75°26' E 001°49'1 1.0
2016-Feb-09 10:01N 75°27' E 001°49'1 0.9
2016-Feb-09 09:01N 75°27' E 001°48'1 0.8
2016-Feb-09 08:01N 75°28' E 001°48'1 0.8
2016-Feb-09 07:01N 75°29' E 001°48'1 0.8
2016-Feb-09 06:01N 75°30' E 001°49'1 0.7
2016-Feb-09 05:01N 75°31' E 001°49'1 0.7
2016-Feb-09 04:01N 75°31' E 001°50'1 0.7
2016-Feb-09 03:01N 75°32' E 001°50'1 0.7
2016-Feb-09 02:01N 75°33' E 001°50'1 0.7
2016-Feb-09 01:01N 75°33' E 001°50'1 0.7
2016-Feb-09 00:01N 75°34' E 001°51'1 0.7
2016-Feb-08 23:01N 75°35' E 001°51'1 0.7
2016-Feb-08 22:01N 75°35' E 001°51'1 0.6
2016-Feb-08 21:01N 75°36' E 001°51'1 0.6
2016-Feb-08 20:01N 75°37' E 001°52'1 0.6
2016-Feb-08 19:01N 75°37' E 001°53'1 0.8
2016-Feb-08 18:01N 75°38' E 001°54'1 0.8
2016-Feb-08 17:01N 75°39' E 001°56'1 0.7
2016-Feb-08 16:01N 75°39' E 001°57'1 0.7
2016-Feb-08 15:01N 75°40' E 001°59'1 0.6
2016-Feb-08 14:01N 75°40' E 001°60'1 0.6
2016-Feb-08 13:01N 75°41' E 002°01'1 0.6
2016-Feb-08 12:01N 75°41' E 002°02'1 0.5
2016-Feb-08 11:01N 75°41' E 002°04'1 0.6
2016-Feb-08 10:01N 75°42' E 002°06'1 0.7
2016-Feb-08 09:01N 75°42' E 002°09'1 0.8
2016-Feb-08 08:01N 75°42' E 002°12'1 0.8
2016-Feb-08 07:01N 75°42' E 002°15'1 0.8
2016-Feb-08 06:01N 75°42' E 002°19'1 0.8
2016-Feb-08 05:01N 75°43' E 002°22'2 0.8
2016-Feb-08 02:01N 75°43' E 002°31'1 0.8
2016-Feb-08 01:01N 75°43' E 002°34'1 0.8
2016-Feb-08 00:01N 75°43' E 002°37'1 0.8
2016-Feb-07 23:01N 75°43' E 002°41'1 0.9
2016-Feb-07 22:01N 75°43' E 002°44'1 1.0
2016-Feb-07 21:01N 75°43' E 002°48'1 0.9
2016-Feb-07 20:01N 75°42' E 002°51'1 0.7
2016-Feb-07 19:01N 75°42' E 002°53'1 0.8
2016-Feb-07 18:01N 75°42' E 002°56'1 0.6
2016-Feb-07 17:01N 75°41' E 002°58'1 0.3
2016-Feb-07 15:01N 75°41' E 003°01'0 0.3
2016-Feb-07 14:01N 75°42' E 003°02'0 0.2
2016-Feb-07 13:01N 75°42' E 003°02'0 0.1
2016-Feb-07 12:01N 75°42' E 003°02'0 0.1
2016-Feb-07 11:01N 75°42' E 003°02'0 0.2
2016-Feb-07 10:01N 75°42' E 003°02'0 0.4
2016-Feb-07 09:01N 75°41' E 003°03'0 0.4
2016-Feb-07 08:01N 75°41' E 003°04'0 0.4
2016-Feb-07 07:01N 75°41' E 003°06'2 0.7
2016-Feb-07 04:01N 75°42' E 003°12'1 1.1
2016-Feb-07 03:01N 75°43' E 003°14'1 1.0
2016-Feb-07 02:01N 75°44' E 003°15'1 0.9
2016-Feb-07 01:01N 75°45' E 003°17'1 0.8
2016-Feb-07 00:01N 75°45' E 003°19'1 0.8
2016-Feb-06 23:01N 75°46' E 003°22'0 0.4
2016-Feb-06 22:01N 75°46' E 003°23'0 0.4
2016-Feb-06 21:01N 75°46' E 003°24'0 0.4
2016-Feb-06 20:01N 75°47' E 003°26'0 0.5
2016-Feb-06 19:01N 75°47' E 003°27'0 0.4
2016-Feb-06 18:01N 75°47' E 003°28'0 0.4
2016-Feb-06 17:01N 75°48' E 003°29'0 0.3
2016-Feb-06 16:01N 75°48' E 003°30'0 0.4
2016-Feb-06 15:01N 75°48' E 003°31'0 0.5
2016-Feb-06 14:01N 75°49' E 003°32'1 0.5
2016-Feb-06 13:01N 75°49' E 003°33'0 0.4
2016-Feb-06 12:01N 75°49' E 003°33'0 0.4
2016-Feb-06 11:01N 75°50' E 003°34'1 0.8
2016-Feb-06 10:01N 75°50' E 003°37'1 0.9
2016-Feb-06 09:01N 75°50' E 003°40'1 0.9
2016-Feb-06 08:01N 75°51' E 003°43'1 0.8
2016-Feb-06 07:01N 75°52' E 003°45'1 0.9
2016-Feb-06 06:01N 75°52' E 003°47'2 0.9
2016-Feb-06 04:01N 75°54' E 003°50'1 0.9
2016-Feb-06 03:01N 75°55' E 003°52'1 1.2
2016-Feb-06 02:01N 75°56' E 003°53'1 1.2
2016-Feb-06 01:01N 75°57' E 003°53'1 1.3
2016-Feb-06 00:01N 75°58' E 003°52'1 1.4
2016-Feb-05 23:01N 75°60' E 003°50'3 1.4
2016-Feb-05 21:01N 76°02' E 003°45'1 1.2
2016-Feb-05 20:01N 76°03' E 003°43'1 1.0
2016-Feb-05 19:01N 76°04' E 003°41'1 1.0
2016-Feb-05 18:01N 76°05' E 003°39'1 0.8
2016-Feb-05 17:01N 76°06' E 003°38'0 0.4
2016-Feb-05 16:01N 76°06' E 003°39'0 0.4
2016-Feb-05 15:01N 76°07' E 003°39'0 0.5
2016-Feb-05 14:01N 76°07' E 003°39'1 0.6
2016-Feb-05 13:01N 76°08' E 003°38'0 0.5
2016-Feb-05 12:01N 76°08' E 003°36'1 0.6
2016-Feb-05 11:01N 76°09' E 003°35'1 0.5
2016-Feb-05 10:01N 76°09' E 003°34'1 0.6
2016-Feb-05 09:01N 76°09' E 003°32'0 0.5
2016-Feb-05 08:01N 76°10' E 003°31'1 0.6
2016-Feb-05 07:01N 76°10' E 003°29'1 0.6
2016-Feb-05 06:01N 76°11' E 003°28'1 0.6
2016-Feb-05 05:01N 76°11' E 003°26'1 0.4
2016-Feb-05 02:01N 76°12' E 003°24'1 0.5
2016-Feb-05 00:01N 76°13' E 003°24'1 0.7
2016-Feb-04 23:01N 76°14' E 003°24'1 0.5
2016-Feb-04 22:01N 76°14' E 003°24'0 0.4
2016-Feb-04 21:01N 76°15' E 003°24'0 0.2
2016-Feb-04 19:01N 76°15' E 003°25'0 0.1
2016-Feb-04 17:01N 76°15' E 003°25'0 0.1
2016-Feb-04 16:01N 76°15' E 003°26'0 0.1
2016-Feb-04 15:01N 76°15' E 003°26'0 0.2
2016-Feb-04 14:01N 76°15' E 003°27'0 0.3
2016-Feb-04 13:01N 76°15' E 003°28'0 0.3
2016-Feb-04 12:01N 76°15' E 003°29'0 0.3
2016-Feb-04 11:01N 76°15' E 003°30'0 0.2
2016-Feb-04 10:01N 76°15' E 003°31'0 0.2
2016-Feb-04 09:01N 76°16' E 003°32'1 0.3
2016-Feb-04 07:01N 76°16' E 003°34'0 0.3
2016-Feb-04 06:01N 76°16' E 003°35'0 0.3
2016-Feb-04 05:01N 76°16' E 003°36'0 0.4
2016-Feb-04 04:01N 76°17' E 003°37'1 0.5
2016-Feb-04 03:01N 76°17' E 003°38'0 0.4
2016-Feb-04 02:01N 76°17' E 003°39'0 0.4
2016-Feb-04 01:01N 76°18' E 003°39'0 0.5
2016-Feb-04 00:01N 76°18' E 003°41'1 0.6
2016-Feb-03 23:01N 76°18' E 003°42'1 0.5
2016-Feb-03 22:01N 76°19' E 003°44'1 0.5
2016-Feb-03 21:01N 76°19' E 003°45'1 0.5
2016-Feb-03 20:01N 76°20' E 003°47'1 0.5
2016-Feb-03 19:01N 76°20' E 003°49'1 0.5
2016-Feb-03 18:01N 76°20' E 003°50'1 0.5
2016-Feb-03 17:01N 76°21' E 003°52'1 0.5
2016-Feb-03 16:01N 76°21' E 003°53'1 0.6
2016-Feb-03 15:01N 76°21' E 003°55'1 0.6
2016-Feb-03 14:01N 76°21' E 003°58'1 0.7
2016-Feb-03 13:01N 76°22' E 004°01'1 0.6
2016-Feb-03 12:01N 76°22' E 004°03'1 0.6
2016-Feb-03 11:01N 76°22' E 004°06'1 0.7
2016-Feb-03 10:01N 76°23' E 004°08'1 0.7
2016-Feb-03 09:01N 76°23' E 004°11'  
Track history (hours):
 
Tides and Currents Weather Stations Pressure Air Temp Water Temp Dewpoint Dewpoint Depression Visibility Wind Speed Wind Dir Waves Ship Positions

Drifting buoy 44845

Last reported at 2016-Feb-13 09:01 UTC. Time now 2016-Feb-13 11:00 UTC.
Position N 74°48' E 003°25'.

Date/timePositionNaut miles runAvg speedWind from/ knotsBaromVisibWave heightAir tempDewpointWater temp
2016-Feb-13 09:01N 74°48' E 003°25'0 0.3
2016-Feb-13 08:01N 74°48' E 003°25'0 0.2
2016-Feb-13 07:01N 74°47' E 003°24'0 0.3
2016-Feb-13 06:01N 74°47' E 003°23'0 0.4
2016-Feb-13 05:01N 74°47' E 003°23'1 0.7
2016-Feb-13 04:01N 74°46' E 003°25'1 0.8
2016-Feb-13 03:01N 74°46' E 003°27'1 0.7
2016-Feb-13 02:01N 74°45' E 003°30'1 0.8
2016-Feb-13 01:01N 74°45' E 003°32'1 0.7
2016-Feb-12 23:01N 74°44' E 003°37'1 0.5
2016-Feb-12 21:01N 74°43' E 003°39'0 0.4
2016-Feb-12 20:01N 74°43' E 003°40'0 0.4
2016-Feb-12 19:01N 74°43' E 003°39'0 0.5
2016-Feb-12 18:01N 74°42' E 003°38'0 0.4
2016-Feb-12 17:01N 74°42' E 003°37'0 0.3
2016-Feb-12 16:01N 74°42' E 003°36'0 0.4
2016-Feb-12 15:01N 74°42' E 003°35'0 0.4
2016-Feb-12 14:01N 74°42' E 003°33'1 0.5
2016-Feb-12 13:01N 74°42' E 003°31'1 0.5
2016-Feb-12 12:01N 74°42' E 003°29'1 0.5
2016-Feb-12 11:01N 74°42' E 003°27'1 0.6
2016-Feb-12 10:01N 74°42' E 003°26'1 0.5
2016-Feb-12 09:01N 74°43' E 003°24'1 0.5
2016-Feb-12 08:01N 74°43' E 003°23'1 0.5
2016-Feb-12 07:01N 74°44' E 003°23'1 0.6
2016-Feb-12 06:01N 74°44' E 003°22'1 0.6
2016-Feb-12 04:01N 74°46' E 003°21'1 0.8
2016-Feb-12 03:01N 74°46' E 003°20'1 0.8
2016-Feb-12 02:01N 74°47' E 003°19'1 0.8
2016-Feb-12 01:01N 74°48' E 003°17'1 0.8
2016-Feb-12 00:01N 74°48' E 003°16'1 0.9
2016-Feb-11 23:01N 74°49' E 003°15'1 0.8
2016-Feb-11 22:01N 74°50' E 003°13'1 0.8
2016-Feb-11 21:01N 74°50' E 003°11'1 0.7
2016-Feb-11 20:01N 74°51' E 003°09'1 0.8
2016-Feb-11 19:01N 74°51' E 003°07'1 0.7
2016-Feb-11 18:01N 74°52' E 003°05'1 0.6
2016-Feb-11 16:01N 74°52' E 003°01'1 0.6
2016-Feb-11 14:01N 74°53' E 002°56'1 0.6
2016-Feb-11 13:01N 74°53' E 002°54'1 0.6
2016-Feb-11 12:01N 74°53' E 002°52'1 0.6
2016-Feb-11 11:01N 74°53' E 002°50'1 0.5
2016-Feb-11 10:01N 74°54' E 002°48'1 0.7
2016-Feb-11 09:01N 74°54' E 002°46'1 0.7
2016-Feb-11 08:01N 74°55' E 002°44'1 0.7
2016-Feb-11 07:01N 74°55' E 002°42'1 0.9
2016-Feb-11 06:01N 74°56' E 002°39'1 1.0
2016-Feb-11 05:01N 74°56' E 002°37'1 1.0
2016-Feb-11 04:01N 74°57' E 002°34'1 0.9
2016-Feb-11 03:01N 74°57' E 002°31'2 0.8
2016-Feb-11 01:01N 74°59' E 002°27'1 0.7
2016-Feb-11 00:02N 74°59' E 002°25'1 0.7
2016-Feb-10 23:01N 74°60' E 002°23'1 0.6
2016-Feb-10 22:01N 75°00' E 002°22'1 1.2
2016-Feb-10 21:01N 75°01' E 002°19'0 0.0
2016-Feb-10 20:01N 75°01' E 002°19'1 0.7
2016-Feb-10 19:01N 75°02' E 002°17'1 0.7
2016-Feb-10 18:01N 75°02' E 002°16'1 0.7
2016-Feb-10 17:01N 75°03' E 002°14'1 0.6
2016-Feb-10 16:01N 75°03' E 002°13'1 0.6
2016-Feb-10 15:01N 75°04' E 002°11'1 0.6
2016-Feb-10 14:01N 75°04' E 002°10'1 0.8
2016-Feb-10 13:01N 75°05' E 002°09'6 0.8
2016-Feb-10 06:01N 75°10' E 002°01'1 0.9
2016-Feb-10 05:01N 75°11' E 002°00'1 0.8
2016-Feb-10 04:01N 75°12' E 001°59'1 0.8
2016-Feb-10 03:01N 75°13' E 001°58'1 0.8
2016-Feb-10 02:01N 75°13' E 001°57'2 0.8
2016-Feb-09 23:01N 75°16' E 001°54'1 0.8
2016-Feb-09 22:01N 75°16' E 001°53'1 0.8
2016-Feb-09 21:01N 75°17' E 001°52'1 0.7
2016-Feb-09 20:01N 75°18' E 001°51'1 0.7
2016-Feb-09 19:01N 75°18' E 001°51'1 0.8
2016-Feb-09 18:01N 75°19' E 001°50'1 1.0
2016-Feb-09 17:01N 75°20' E 001°50'2 0.9
2016-Feb-09 15:01N 75°22' E 001°49'1 0.8
2016-Feb-09 14:01N 75°23' E 001°49'1 0.8
2016-Feb-09 13:01N 75°24' E 001°49'1 0.9
2016-Feb-09 12:01N 75°25' E 001°49'1 1.0
2016-Feb-09 11:02N 75°26' E 001°49'1 1.0
2016-Feb-09 10:01N 75°27' E 001°49'1 0.9
2016-Feb-09 09:01N 75°27' E 001°48'1 0.8
2016-Feb-09 08:01N 75°28' E 001°48'1 0.8
2016-Feb-09 07:01N 75°29' E 001°48'1 0.8
2016-Feb-09 06:01N 75°30' E 001°49'1 0.7
2016-Feb-09 05:01N 75°31' E 001°49'1 0.7
2016-Feb-09 04:01N 75°31' E 001°50'1 0.7
2016-Feb-09 03:01N 75°32' E 001°50'1 0.7
2016-Feb-09 02:01N 75°33' E 001°50'1 0.7
2016-Feb-09 01:01N 75°33' E 001°50'1 0.7
2016-Feb-09 00:01N 75°34' E 001°51'1 0.7
2016-Feb-08 23:01N 75°35' E 001°51'1 0.7
2016-Feb-08 22:01N 75°35' E 001°51'1 0.6
2016-Feb-08 21:01N 75°36' E 001°51'1 0.6
2016-Feb-08 20:01N 75°37' E 001°52'1 0.6
2016-Feb-08 19:01N 75°37' E 001°53'1 0.8
2016-Feb-08 18:01N 75°38' E 001°54'1 0.8
2016-Feb-08 17:01N 75°39' E 001°56'1 0.7
2016-Feb-08 16:01N 75°39' E 001°57'1 0.7
2016-Feb-08 15:01N 75°40' E 001°59'1 0.6
2016-Feb-08 14:01N 75°40' E 001°60'1 0.6
2016-Feb-08 13:01N 75°41' E 002°01'1 0.6
2016-Feb-08 12:01N 75°41' E 002°02'1 0.5
2016-Feb-08 11:01N 75°41' E 002°04'1 0.6
2016-Feb-08 10:01N 75°42' E 002°06'1 0.7
2016-Feb-08 09:01N 75°42' E 002°09'1 0.8
2016-Feb-08 08:01N 75°42' E 002°12'1 0.8
2016-Feb-08 07:01N 75°42' E 002°15'1 0.8
2016-Feb-08 06:01N 75°42' E 002°19'1 0.8
2016-Feb-08 05:01N 75°43' E 002°22'2 0.8
2016-Feb-08 02:01N 75°43' E 002°31'1 0.8
2016-Feb-08 01:01N 75°43' E 002°34'1 0.8
2016-Feb-08 00:01N 75°43' E 002°37'1 0.8
2016-Feb-07 23:01N 75°43' E 002°41'1 0.9
2016-Feb-07 22:01N 75°43' E 002°44'1 1.0
2016-Feb-07 21:01N 75°43' E 002°48'1 0.9
2016-Feb-07 20:01N 75°42' E 002°51'1 0.7
2016-Feb-07 19:01N 75°42' E 002°53'1 0.8
2016-Feb-07 18:01N 75°42' E 002°56'1 0.6
2016-Feb-07 17:01N 75°41' E 002°58'1 0.3
2016-Feb-07 15:01N 75°41' E 003°01'0 0.3
2016-Feb-07 14:01N 75°42' E 003°02'0 0.2
2016-Feb-07 13:01N 75°42' E 003°02'0 0.1
2016-Feb-07 12:01N 75°42' E 003°02'0 0.1
2016-Feb-07 11:01N 75°42' E 003°02'0 0.2
2016-Feb-07 10:01N 75°42' E 003°02'0 0.4
2016-Feb-07 09:01N 75°41' E 003°03'0 0.4
2016-Feb-07 08:01N 75°41' E 003°04'0 0.4
2016-Feb-07 07:01N 75°41' E 003°06'2 0.7
2016-Feb-07 04:01N 75°42' E 003°12'1 1.1
2016-Feb-07 03:01N 75°43' E 003°14'1 1.0
2016-Feb-07 02:01N 75°44' E 003°15'1 0.9
2016-Feb-07 01:01N 75°45' E 003°17'1 0.8
2016-Feb-07 00:01N 75°45' E 003°19'1 0.8
2016-Feb-06 23:01N 75°46' E 003°22'0 0.4
2016-Feb-06 22:01N 75°46' E 003°23'0 0.4
2016-Feb-06 21:01N 75°46' E 003°24'0 0.4
2016-Feb-06 20:01N 75°47' E 003°26'0 0.5
2016-Feb-06 19:01N 75°47' E 003°27'0 0.4
2016-Feb-06 18:01N 75°47' E 003°28'0 0.4
2016-Feb-06 17:01N 75°48' E 003°29'0 0.3
2016-Feb-06 16:01N 75°48' E 003°30'0 0.4
2016-Feb-06 15:01N 75°48' E 003°31'0 0.5
2016-Feb-06 14:01N 75°49' E 003°32'1 0.5
2016-Feb-06 13:01N 75°49' E 003°33'0 0.4
2016-Feb-06 12:01N 75°49' E 003°33'0 0.4
2016-Feb-06 11:01N 75°50' E 003°34'1 0.8
2016-Feb-06 10:01N 75°50' E 003°37'1 0.9
2016-Feb-06 09:01N 75°50' E 003°40'1 0.9
2016-Feb-06 08:01N 75°51' E 003°43'1 0.8
2016-Feb-06 07:01N 75°52' E 003°45'1 0.9
2016-Feb-06 06:01N 75°52' E 003°47'2 0.9
2016-Feb-06 04:01N 75°54' E 003°50'1 0.9
2016-Feb-06 03:01N 75°55' E 003°52'1 1.2
2016-Feb-06 02:01N 75°56' E 003°53'1 1.2
2016-Feb-06 01:01N 75°57' E 003°53'1 1.3
2016-Feb-06 00:01N 75°58' E 003°52'1 1.4
2016-Feb-05 23:01N 75°60' E 003°50'3 1.4
2016-Feb-05 21:01N 76°02' E 003°45'1 1.2
2016-Feb-05 20:01N 76°03' E 003°43'1 1.0
2016-Feb-05 19:01N 76°04' E 003°41'1 1.0
2016-Feb-05 18:01N 76°05' E 003°39'1 0.8
2016-Feb-05 17:01N 76°06' E 003°38'0 0.4
2016-Feb-05 16:01N 76°06' E 003°39'0 0.4
2016-Feb-05 15:01N 76°07' E 003°39'0 0.5
2016-Feb-05 14:01N 76°07' E 003°39'1 0.6
2016-Feb-05 13:01N 76°08' E 003°38'0 0.5
2016-Feb-05 12:01N 76°08' E 003°36'1 0.6
2016-Feb-05 11:01N 76°09' E 003°35'1 0.5
2016-Feb-05 10:01N 76°09' E 003°34'1 0.6
2016-Feb-05 09:01N 76°09' E 003°32'0 0.5
2016-Feb-05 08:01N 76°10' E 003°31'1 0.6
2016-Feb-05 07:01N 76°10' E 003°29'1 0.6
2016-Feb-05 06:01N 76°11' E 003°28'1 0.6
2016-Feb-05 05:01N 76°11' E 003°26'1 0.4
2016-Feb-05 02:01N 76°12' E 003°24'1 0.5
2016-Feb-05 00:01N 76°13' E 003°24'1 0.7
2016-Feb-04 23:01N 76°14' E 003°24'1 0.5
2016-Feb-04 22:01N 76°14' E 003°24'0 0.4
2016-Feb-04 21:01N 76°15' E 003°24'0 0.2
2016-Feb-04 19:01N 76°15' E 003°25'0 0.1
2016-Feb-04 17:01N 76°15' E 003°25'0 0.1
2016-Feb-04 16:01N 76°15' E 003°26'0 0.1
2016-Feb-04 15:01N 76°15' E 003°26'0 0.2
2016-Feb-04 14:01N 76°15' E 003°27'0 0.3
2016-Feb-04 13:01N 76°15' E 003°28'0 0.3
2016-Feb-04 12:01N 76°15' E 003°29'0 0.3
2016-Feb-04 11:01N 76°15' E 003°30'0 0.2
2016-Feb-04 10:01N 76°15' E 003°31'0 0.2
2016-Feb-04 09:01N 76°16' E 003°32'1 0.3
2016-Feb-04 07:01N 76°16' E 003°34'0 0.3
2016-Feb-04 06:01N 76°16' E 003°35'0 0.3
2016-Feb-04 05:01N 76°16' E 003°36'0 0.4
2016-Feb-04 04:01N 76°17' E 003°37'1 0.5
2016-Feb-04 03:01N 76°17' E 003°38'0 0.4
2016-Feb-04 02:01N 76°17' E 003°39'0 0.4
2016-Feb-04 01:01N 76°18' E 003°39'0 0.5
2016-Feb-04 00:01N 76°18' E 003°41'1 0.6
2016-Feb-03 23:01N 76°18' E 003°42'1 0.5
2016-Feb-03 22:01N 76°19' E 003°44'1 0.5
2016-Feb-03 21:01N 76°19' E 003°45'1 0.5
2016-Feb-03 20:01N 76°20' E 003°47'1 0.5
2016-Feb-03 19:01N 76°20' E 003°49'1 0.5
2016-Feb-03 18:01N 76°20' E 003°50'1 0.5
2016-Feb-03 17:01N 76°21' E 003°52'1 0.5
2016-Feb-03 16:01N 76°21' E 003°53'1 0.6
2016-Feb-03 15:01N 76°21' E 003°55'1 0.6
2016-Feb-03 14:01N 76°21' E 003°58'1 0.7
2016-Feb-03 13:01N 76°22' E 004°01'1 0.6
2016-Feb-03 12:01N 76°22' E 004°03'1 0.6
2016-Feb-03 11:01N 76°22' E 004°06'1 0.7
2016-Feb-03 10:01N 76°23' E 004°08'1 0.7
2016-Feb-03 09:01N 76°23' E 004°11'  

Dump ship's entire track history